CYVRCYCD

Guest
Details From CYVR - Vancouver Intl
To CYCD - Nanaimo
Flight Number -
Tags generated
Created
Modified
Stats Distance 28 nm / 52 km
Max Altitude 3,300 ft / 1,006 m
Waypoints 3
Social Downloads 0
Likes 0
Share VATSIM

Download

Looking for another format? Having issues loading an existing format? Contact us
Advertisement - Login to hide

Notes

Basic altitude profile: - Ascent Rate: 6000ft/min - Ascent Speed: 250kts - Cruise Altitude: 6000ft - Cruise Speed: 420kts - Descent Rate: 1500ft/min - Descent Speed: 250kts Options: - Use NATs: yes - Use PACOTS: yes - Use low airways: yes - Use high airways: yes

Route

CYVR HADER CYCD

ID Type Via Altitude Latitude Longitude Leg Dist Tot Dist Heading (true) Name
O CYVR APT - 0 ft / 0 m 49.19233˚ -123.18799˚ - 0 nm - Vancouver Intl
HADER FIX - 3,300 ft / 1,006 m 49.13769˚ -123.49542˚ 12 nm 12 nm 255° / 255° -
O CYCD APT - 0 ft / 0 m 49.05237˚ -123.87011˚ 15 nm 28 nm 251° / 251° Nanaimo

Altitude Profile

Advertisement - Login to hide

CYVR

Details ICAO CYVR (YVR)
Name Vancouver Intl
Region Canada
Timezone America/Vancouver (UTC-7.0)
Stats Elevation 14 ft / 4 m (AMSL)
Location 49.192331° -123.187993°
Runways 4
Magnetic Variation 16.198° E

METAR

CYVR 241400Z 11015KT 30SM FEW016 BKN018 BKN093 14/11 A2998 RMK CU1SC5AC1 SLP155

Decode

TAF

TAF AMD CYVR 241351Z 2413/2518 11012KT P6SM FEW015 FEW100 TEMPO 2413/2417 BKN015 FM241900 13010KT P6SM FEW040 SCT100 BECMG 2502/2504 10008KT FM250400 10008KT P6SM SCT060 BKN120 RMK NXT FCST BY 241500Z

Decode

Departure Runways

ID Width Length Bearing (true) Bearing (mag) Surface Threshold Offset Overrun Length
08 75 ft / 23 m 3,497 ft / 1,066 m 100.01° 83.81° Concrete 0 ft / 0 m 0 ft / 0 m
08L 200 ft / 61 m 9,910 ft / 3,021 m 99.80° 83.60° Concrete 0 ft / 0 m 0 ft / 0 m
08R 200 ft / 61 m 11,491 ft / 3,502 m 99.94° 83.74° Asphalt 0 ft / 0 m 0 ft / 0 m
12 200 ft / 61 m 7,291 ft / 2,222 m 141.91° 125.71° Asphalt 0 ft / 0 m 0 ft / 0 m
26 75 ft / 23 m 3,497 ft / 1,066 m 280.02° 263.82° Concrete 0 ft / 0 m 0 ft / 0 m
26L 200 ft / 61 m 11,491 ft / 3,502 m 279.97° 263.77° Asphalt 0 ft / 0 m 0 ft / 0 m
26R 200 ft / 61 m 9,910 ft / 3,021 m 279.83° 263.63° Concrete 0 ft / 0 m 0 ft / 0 m
30 200 ft / 61 m 7,291 ft / 2,222 m 321.93° 305.73° Asphalt 0 ft / 0 m 0 ft / 0 m

CYCD

Details ICAO CYCD (YCD)
Name Nanaimo
Region Canada
Timezone America/Vancouver (UTC-7.0)
Stats Elevation 93 ft / 28 m (AMSL)
Location 49.052367° -123.870111°
Runways 1
Magnetic Variation 16.274° E

METAR

CYCD 241400Z 05002KT 30SM FEW050 FEW100 BKN150 15/13 A2997 RMK SC1AC1AC4 SLP149 DENSITY ALT 100FT

Decode

TAF

Not found

Destination Runways

ID Width Length Bearing (true) Bearing (mag) Surface Threshold Offset Overrun Length
16 200 ft / 61 m 5,018 ft / 1,529 m 180.75° 164.48° Asphalt 0 ft / 0 m 0 ft / 0 m
34 200 ft / 61 m 5,018 ft / 1,529 m 0.75° 344.48° Asphalt 1,001 ft / 305 m 0 ft / 0 m

Popular Alternatives